sensor_id;sensor_type;location;lat;lon;timestamp;pressure;altitude;pressure_sealevel;temperature
4421;BMP180;11824;51.178;13.546;2022-11-20T00:01:52;99849.00;;;-5.50
4421;BMP180;11824;51.178;13.546;2022-11-20T00:04:20;99848.00;;;-5.60
4421;BMP180;11824;51.178;13.546;2022-11-20T00:06:51;99842.00;;;-5.60
4421;BMP180;11824;51.178;13.546;2022-11-20T00:09:19;99852.00;;;-5.60
4421;BMP180;11824;51.178;13.546;2022-11-20T00:11:49;99848.00;;;-5.60
4421;BMP180;11824;51.178;13.546;2022-11-20T00:14:18;99845.00;;;-5.60
4421;BMP180;11824;51.178;13.546;2022-11-20T00:16:46;99859.00;;;-5.60
4421;BMP180;11824;51.178;13.546;2022-11-20T00:19:15;99851.00;;;-5.70
4421;BMP180;11824;51.178;13.546;2022-11-20T00:21:44;99853.00;;;-5.70
4421;BMP180;11824;51.178;13.546;2022-11-20T00:24:14;99851.00;;;-5.70
4421;BMP180;11824;51.178;13.546;2022-11-20T00:26:43;99849.00;;;-5.70
4421;BMP180;11824;51.178;13.546;2022-11-20T00:29:12;99850.00;;;-5.70
4421;BMP180;11824;51.178;13.546;2022-11-20T00:31:41;99852.00;;;-5.70
4421;BMP180;11824;51.178;13.546;2022-11-20T00:34:09;99856.00;;;-5.80
4421;BMP180;11824;51.178;13.546;2022-11-20T00:36:38;99858.00;;;-5.80
4421;BMP180;11824;51.178;13.546;2022-11-20T00:39:07;99855.00;;;-5.80
4421;BMP180;11824;51.178;13.546;2022-11-20T00:41:37;99857.00;;;-5.80
4421;BMP180;11824;51.178;13.546;2022-11-20T00:44:05;99868.00;;;-5.80
4421;BMP180;11824;51.178;13.546;2022-11-20T00:46:34;99868.00;;;-5.80
4421;BMP180;11824;51.178;13.546;2022-11-20T00:49:03;99862.00;;;-5.80
4421;BMP180;11824;51.178;13.546;2022-11-20T00:51:32;99865.00;;;-5.80
4421;BMP180;11824;51.178;13.546;2022-11-20T00:54:01;99863.00;;;-5.80
4421;BMP180;11824;51.178;13.546;2022-11-20T00:56:30;99863.00;;;-5.80
4421;BMP180;11824;51.178;13.546;2022-11-20T00:59:01;99872.00;;;-5.80
4421;BMP180;11824;51.178;13.546;2022-11-20T01:01:29;99861.00;;;-5.80
4421;BMP180;11824;51.178;13.546;2022-11-20T01:03:59;99867.00;;;-5.80
4421;BMP180;11824;51.178;13.546;2022-11-20T01:06:29;99877.00;;;-5.80
4421;BMP180;11824;51.178;13.546;2022-11-20T01:09:00;99872.00;;;-5.90
4421;BMP180;11824;51.178;13.546;2022-11-20T01:11:30;99873.00;;;-5.80
4421;BMP180;11824;51.178;13.546;2022-11-20T01:14:02;99874.00;;;-5.90
4421;BMP180;11824;51.178;13.546;2022-11-20T01:16:32;99879.00;;;-5.90
4421;BMP180;11824;51.178;13.546;2022-11-20T01:19:03;99884.00;;;-5.90
4421;BMP180;11824;51.178;13.546;2022-11-20T01:21:34;99872.00;;;-5.90
4421;BMP180;11824;51.178;13.546;2022-11-20T01:24:04;99867.00;;;-5.90
4421;BMP180;11824;51.178;13.546;2022-11-20T01:26:36;99874.00;;;-5.90
4421;BMP180;11824;51.178;13.546;2022-11-20T01:29:08;99864.00;;;-5.90
4421;BMP180;11824;51.178;13.546;2022-11-20T01:31:39;99868.00;;;-5.90
4421;BMP180;11824;51.178;13.546;2022-11-20T01:34:10;99856.00;;;-5.90
4421;BMP180;11824;51.178;13.546;2022-11-20T01:36:40;99863.00;;;-5.90
4421;BMP180;11824;51.178;13.546;2022-11-20T01:39:12;99857.00;;;-5.90
4421;BMP180;11824;51.178;13.546;2022-11-20T01:41:41;99854.00;;;-5.90
4421;BMP180;11824;51.178;13.546;2022-11-20T01:44:53;99849.00;;;-6.00
4421;BMP180;11824;51.178;13.546;2022-11-20T01:47:27;99854.00;;;-6.00
4421;BMP180;11824;51.178;13.546;2022-11-20T01:49:59;99848.00;;;-6.00
4421;BMP180;11824;51.178;13.546;2022-11-20T01:52:32;99849.00;;;-6.00
4421;BMP180;11824;51.178;13.546;2022-11-20T01:55:05;99843.00;;;-6.00
4421;BMP180;11824;51.178;13.546;2022-11-20T01:57:35;99845.00;;;-6.00
4421;BMP180;11824;51.178;13.546;2022-11-20T02:00:08;99845.00;;;-6.00
4421;BMP180;11824;51.178;13.546;2022-11-20T02:02:38;99841.00;;;-6.00
4421;BMP180;11824;51.178;13.546;2022-11-20T02:05:14;99844.00;;;-6.00
4421;BMP180;11824;51.178;13.546;2022-11-20T02:07:47;99853.00;;;-6.10
4421;BMP180;11824;51.178;13.546;2022-11-20T02:10:16;99849.00;;;-6.10
4421;BMP180;11824;51.178;13.546;2022-11-20T02:12:45;99838.00;;;-6.10
4421;BMP180;11824;51.178;13.546;2022-11-20T02:15:34;99835.00;;;-6.10
4421;BMP180;11824;51.178;13.546;2022-11-20T02:18:03;99834.00;;;-6.10
4421;BMP180;11824;51.178;13.546;2022-11-20T02:20:32;99840.00;;;-6.10
4421;BMP180;11824;51.178;13.546;2022-11-20T02:23:05;99834.00;;;-6.10
4421;BMP180;11824;51.178;13.546;2022-11-20T02:25:38;99833.00;;;-6.10
4421;BMP180;11824;51.178;13.546;2022-11-20T02:28:07;99833.00;;;-6.10
4421;BMP180;11824;51.178;13.546;2022-11-20T02:30:36;99831.00;;;-6.10
4421;BMP180;11824;51.178;13.546;2022-11-20T02:33:05;99836.00;;;-6.10
4421;BMP180;11824;51.178;13.546;2022-11-20T02:35:42;99836.00;;;-6.10
4421;BMP180;11824;51.178;13.546;2022-11-20T02:38:11;99826.00;;;-6.10
4421;BMP180;11824;51.178;13.546;2022-11-20T02:40:42;99827.00;;;-6.10
4421;BMP180;11824;51.178;13.546;2022-11-20T02:43:11;99833.00;;;-6.10
4421;BMP180;11824;51.178;13.546;2022-11-20T02:45:40;99834.00;;;-6.20
4421;BMP180;11824;51.178;13.546;2022-11-20T02:48:08;99836.00;;;-6.20
4421;BMP180;11824;51.178;13.546;2022-11-20T02:50:38;99833.00;;;-6.20
4421;BMP180;11824;51.178;13.546;2022-11-20T02:53:07;99826.00;;;-6.20
4421;BMP180;11824;51.178;13.546;2022-11-20T02:55:36;99828.00;;;-6.20
4421;BMP180;11824;51.178;13.546;2022-11-20T02:58:06;99831.00;;;-6.20
4421;BMP180;11824;51.178;13.546;2022-11-20T03:00:35;99833.00;;;-6.30
4421;BMP180;11824;51.178;13.546;2022-11-20T03:03:04;99829.00;;;-6.30
4421;BMP180;11824;51.178;13.546;2022-11-20T03:05:32;99826.00;;;-6.30
4421;BMP180;11824;51.178;13.546;2022-11-20T03:08:01;99824.00;;;-6.30
4421;BMP180;11824;51.178;13.546;2022-11-20T03:10:30;99823.00;;;-6.30
4421;BMP180;11824;51.178;13.546;2022-11-20T03:12:58;99813.00;;;-6.40
4421;BMP180;11824;51.178;13.546;2022-11-20T03:15:28;99800.00;;;-6.40
4421;BMP180;11824;51.178;13.546;2022-11-20T03:17:57;99813.00;;;-6.40
4421;BMP180;11824;51.178;13.546;2022-11-20T03:20:26;99808.00;;;-6.40
4421;BMP180;11824;51.178;13.546;2022-11-20T03:22:55;99808.00;;;-6.40
4421;BMP180;11824;51.178;13.546;2022-11-20T03:25:23;99797.00;;;-6.40
4421;BMP180;11824;51.178;13.546;2022-11-20T03:27:52;99801.00;;;-6.40
4421;BMP180;11824;51.178;13.546;2022-11-20T03:30:20;99808.00;;;-6.40
4421;BMP180;11824;51.178;13.546;2022-11-20T03:32:58;99804.00;;;-6.50
4421;BMP180;11824;51.178;13.546;2022-11-20T03:35:27;99802.00;;;-6.50
4421;BMP180;11824;51.178;13.546;2022-11-20T03:37:55;99802.00;;;-6.50
4421;BMP180;11824;51.178;13.546;2022-11-20T03:40:25;99803.00;;;-6.50
4421;BMP180;11824;51.178;13.546;2022-11-20T03:42:54;99808.00;;;-6.50
4421;BMP180;11824;51.178;13.546;2022-11-20T03:45:22;99808.00;;;-6.50
4421;BMP180;11824;51.178;13.546;2022-11-20T03:47:51;99805.00;;;-6.50
4421;BMP180;11824;51.178;13.546;2022-11-20T03:50:21;99804.00;;;-6.50
4421;BMP180;11824;51.178;13.546;2022-11-20T03:52:50;99799.00;;;-6.50
4421;BMP180;11824;51.178;13.546;2022-11-20T03:55:18;99800.00;;;-6.50
4421;BMP180;11824;51.178;13.546;2022-11-20T03:57:47;99793.00;;;-6.50
4421;BMP180;11824;51.178;13.546;2022-11-20T04:00:16;99799.00;;;-6.50
4421;BMP180;11824;51.178;13.546;2022-11-20T04:02:45;99792.00;;;-6.60
4421;BMP180;11824;51.178;13.546;2022-11-20T04:05:13;99794.00;;;-6.60
4421;BMP180;11824;51.178;13.546;2022-11-20T04:07:44;99788.00;;;-6.60
4421;BMP180;11824;51.178;13.546;2022-11-20T04:10:12;99797.00;;;-6.60
4421;BMP180;11824;51.178;13.546;2022-11-20T04:12:41;99791.00;;;-6.60
4421;BMP180;11824;51.178;13.546;2022-11-20T04:15:10;99792.00;;;-6.60
4421;BMP180;11824;51.178;13.546;2022-11-20T04:17:38;99782.00;;;-6.60
4421;BMP180;11824;51.178;13.546;2022-11-20T04:20:08;99785.00;;;-6.60
4421;BMP180;11824;51.178;13.546;2022-11-20T04:22:36;99787.00;;;-6.60
4421;BMP180;11824;51.178;13.546;2022-11-20T04:25:07;99788.00;;;-6.60
4421;BMP180;11824;51.178;13.546;2022-11-20T04:27:36;99783.00;;;-6.60
4421;BMP180;11824;51.178;13.546;2022-11-20T04:30:05;99785.00;;;-6.60
4421;BMP180;11824;51.178;13.546;2022-11-20T04:32:34;99779.00;;;-6.60
4421;BMP180;11824;51.178;13.546;2022-11-20T04:35:03;99773.00;;;-6.60
4421;BMP180;11824;51.178;13.546;2022-11-20T04:37:32;99759.00;;;-6.60
4421;BMP180;11824;51.178;13.546;2022-11-20T04:40:00;99769.00;;;-6.60
4421;BMP180;11824;51.178;13.546;2022-11-20T04:42:30;99765.00;;;-6.60
4421;BMP180;11824;51.178;13.546;2022-11-20T04:44:59;99758.00;;;-6.60
4421;BMP180;11824;51.178;13.546;2022-11-20T04:47:28;99757.00;;;-6.60
4421;BMP180;11824;51.178;13.546;2022-11-20T04:49:56;99760.00;;;-6.60
4421;BMP180;11824;51.178;13.546;2022-11-20T04:52:25;99765.00;;;-6.60
4421;BMP180;11824;51.178;13.546;2022-11-20T04:54:54;99775.00;;;-6.60
4421;BMP180;11824;51.178;13.546;2022-11-20T04:57:22;99770.00;;;-6.60
4421;BMP180;11824;51.178;13.546;2022-11-20T04:59:52;99766.00;;;-6.60
4421;BMP180;11824;51.178;13.546;2022-11-20T05:02:22;99771.00;;;-6.60
4421;BMP180;11824;51.178;13.546;2022-11-20T05:04:50;99779.00;;;-6.60
4421;BMP180;11824;51.178;13.546;2022-11-20T05:07:19;99775.00;;;-6.60
4421;BMP180;11824;51.178;13.546;2022-11-20T05:09:48;99771.00;;;-6.60
4421;BMP180;11824;51.178;13.546;2022-11-20T05:12:17;99777.00;;;-6.60
4421;BMP180;11824;51.178;13.546;2022-11-20T05:14:45;99791.00;;;-6.60
4421;BMP180;11824;51.178;13.546;2022-11-20T05:17:15;99779.00;;;-6.60
4421;BMP180;11824;51.178;13.546;2022-11-20T05:19:44;99771.00;;;-6.70
4421;BMP180;11824;51.178;13.546;2022-11-20T05:22:19;99783.00;;;-6.70
4421;BMP180;11824;51.178;13.546;2022-11-20T05:24:48;99779.00;;;-6.70
4421;BMP180;11824;51.178;13.546;2022-11-20T05:27:16;99780.00;;;-6.80
4421;BMP180;11824;51.178;13.546;2022-11-20T05:29:45;99779.00;;;-6.80
4421;BMP180;11824;51.178;13.546;2022-11-20T05:32:15;99769.00;;;-6.80
4421;BMP180;11824;51.178;13.546;2022-11-20T05:34:43;99781.00;;;-6.80
4421;BMP180;11824;51.178;13.546;2022-11-20T05:37:12;99776.00;;;-6.90
4421;BMP180;11824;51.178;13.546;2022-11-20T05:39:41;99763.00;;;-6.90
4421;BMP180;11824;51.178;13.546;2022-11-20T05:42:09;99761.00;;;-6.90
4421;BMP180;11824;51.178;13.546;2022-11-20T05:44:55;99774.00;;;-6.90
4421;BMP180;11824;51.178;13.546;2022-11-20T05:47:26;99768.00;;;-6.90
4421;BMP180;11824;51.178;13.546;2022-11-20T05:49:54;99757.00;;;-7.00
4421;BMP180;11824;51.178;13.546;2022-11-20T05:52:23;99761.00;;;-7.00
4421;BMP180;11824;51.178;13.546;2022-11-20T05:54:52;99762.00;;;-6.90
4421;BMP180;11824;51.178;13.546;2022-11-20T05:57:20;99771.00;;;-6.90
4421;BMP180;11824;51.178;13.546;2022-11-20T05:59:49;99757.00;;;-7.00
4421;BMP180;11824;51.178;13.546;2022-11-20T06:02:18;99762.00;;;-7.00
4421;BMP180;11824;51.178;13.546;2022-11-20T06:04:48;99765.00;;;-7.00
4421;BMP180;11824;51.178;13.546;2022-11-20T06:07:16;99761.00;;;-7.00
4421;BMP180;11824;51.178;13.546;2022-11-20T06:09:45;99750.00;;;-7.10
4421;BMP180;11824;51.178;13.546;2022-11-20T06:12:14;99760.00;;;-7.00
4421;BMP180;11824;51.178;13.546;2022-11-20T06:14:42;99757.00;;;-7.10
4421;BMP180;11824;51.178;13.546;2022-11-20T06:17:11;99752.00;;;-7.10
4421;BMP180;11824;51.178;13.546;2022-11-20T06:19:40;99746.00;;;-7.10
4421;BMP180;11824;51.178;13.546;2022-11-20T06:22:10;99744.00;;;-7.00
4421;BMP180;11824;51.178;13.546;2022-11-20T06:24:38;99743.00;;;-7.10
4421;BMP180;11824;51.178;13.546;2022-11-20T06:27:07;99754.00;;;-7.10
4421;BMP180;11824;51.178;13.546;2022-11-20T06:29:36;99740.00;;;-7.10
4421;BMP180;11824;51.178;13.546;2022-11-20T06:32:04;99741.00;;;-7.10
4421;BMP180;11824;51.178;13.546;2022-11-20T06:34:33;99748.00;;;-7.10
4421;BMP180;11824;51.178;13.546;2022-11-20T06:37:02;99735.00;;;-7.10
4421;BMP180;11824;51.178;13.546;2022-11-20T06:39:32;99735.00;;;-7.10
4421;BMP180;11824;51.178;13.546;2022-11-20T06:42:00;99742.00;;;-7.20
4421;BMP180;11824;51.178;13.546;2022-11-20T06:44:29;99736.00;;;-7.10
4421;BMP180;11824;51.178;13.546;2022-11-20T06:46:58;99727.00;;;-7.10
4421;BMP180;11824;51.178;13.546;2022-11-20T06:49:27;99729.00;;;-7.10
4421;BMP180;11824;51.178;13.546;2022-11-20T06:51:55;99727.00;;;-7.10
4421;BMP180;11824;51.178;13.546;2022-11-20T06:54:24;99739.00;;;-7.10
4421;BMP180;11824;51.178;13.546;2022-11-20T06:56:54;99737.00;;;-7.00
4421;BMP180;11824;51.178;13.546;2022-11-20T06:59:23;99726.00;;;-7.00
4421;BMP180;11824;51.178;13.546;2022-11-20T07:01:52;99738.00;;;-7.00
4421;BMP180;11824;51.178;13.546;2022-11-20T07:04:20;99743.00;;;-6.90
4421;BMP180;11824;51.178;13.546;2022-11-20T07:06:49;99748.00;;;-6.90
4421;BMP180;11824;51.178;13.546;2022-11-20T07:09:18;99744.00;;;-6.90
4421;BMP180;11824;51.178;13.546;2022-11-20T07:11:47;99731.00;;;-6.80
4421;BMP180;11824;51.178;13.546;2022-11-20T07:14:17;99743.00;;;-6.80
4421;BMP180;11824;51.178;13.546;2022-11-20T07:16:46;99734.00;;;-6.80
4421;BMP180;11824;51.178;13.546;2022-11-20T07:19:14;99739.00;;;-6.70
4421;BMP180;11824;51.178;13.546;2022-11-20T07:21:43;99742.00;;;-6.70
4421;BMP180;11824;51.178;13.546;2022-11-20T07:24:12;99741.00;;;-6.60
4421;BMP180;11824;51.178;13.546;2022-11-20T07:26:41;99743.00;;;-6.60
4421;BMP180;11824;51.178;13.546;2022-11-20T07:29:10;99742.00;;;-6.60
4421;BMP180;11824;51.178;13.546;2022-11-20T07:31:40;99742.00;;;-6.50
4421;BMP180;11824;51.178;13.546;2022-11-20T07:34:08;99734.00;;;-6.40
4421;BMP180;11824;51.178;13.546;2022-11-20T07:36:37;99735.00;;;-6.40
4421;BMP180;11824;51.178;13.546;2022-11-20T07:39:06;99730.00;;;-6.30
4421;BMP180;11824;51.178;13.546;2022-11-20T07:41:35;99728.00;;;-6.20
4421;BMP180;11824;51.178;13.546;2022-11-20T07:44:04;99735.00;;;-6.20
4421;BMP180;11824;51.178;13.546;2022-11-20T07:46:33;99727.00;;;-6.10
4421;BMP180;11824;51.178;13.546;2022-11-20T07:49:04;99723.00;;;-6.00
4421;BMP180;11824;51.178;13.546;2022-11-20T07:51:33;99742.00;;;-5.90
4421;BMP180;11824;51.178;13.546;2022-11-20T07:54:02;99729.00;;;-5.90
4421;BMP180;11824;51.178;13.546;2022-11-20T07:56:31;99727.00;;;-5.80
4421;BMP180;11824;51.178;13.546;2022-11-20T07:59:00;99723.00;;;-5.70
4421;BMP180;11824;51.178;13.546;2022-11-20T08:01:29;99730.00;;;-5.60
4421;BMP180;11824;51.178;13.546;2022-11-20T08:03:58;99734.00;;;-5.60
4421;BMP180;11824;51.178;13.546;2022-11-20T08:06:29;99722.00;;;-5.50
4421;BMP180;11824;51.178;13.546;2022-11-20T08:08:58;99723.00;;;-5.40
4421;BMP180;11824;51.178;13.546;2022-11-20T08:11:27;99728.00;;;-5.30
4421;BMP180;11824;51.178;13.546;2022-11-20T08:14:14;99731.00;;;-5.30
4421;BMP180;11824;51.178;13.546;2022-11-20T08:16:45;99732.00;;;-5.20
4421;BMP180;11824;51.178;13.546;2022-11-20T08:19:15;99725.00;;;-5.10
4421;BMP180;11824;51.178;13.546;2022-11-20T08:21:46;99722.00;;;-5.00
4421;BMP180;11824;51.178;13.546;2022-11-20T08:24:15;99718.00;;;-4.90
4421;BMP180;11824;51.178;13.546;2022-11-20T08:26:44;99724.00;;;-4.80
4421;BMP180;11824;51.178;13.546;2022-11-20T08:29:13;99716.00;;;-4.80
4421;BMP180;11824;51.178;13.546;2022-11-20T08:31:45;99718.00;;;-4.70
4421;BMP180;11824;51.178;13.546;2022-11-20T08:34:14;99722.00;;;-4.60
4421;BMP180;11824;51.178;13.546;2022-11-20T08:36:47;99718.00;;;-4.50
4421;BMP180;11824;51.178;13.546;2022-11-20T08:39:16;99714.00;;;-4.40
4421;BMP180;11824;51.178;13.546;2022-11-20T08:41:46;99720.00;;;-4.30
4421;BMP180;11824;51.178;13.546;2022-11-20T08:44:15;99706.00;;;-4.20
4421;BMP180;11824;51.178;13.546;2022-11-20T08:46:44;99708.00;;;-4.10
4421;BMP180;11824;51.178;13.546;2022-11-20T08:49:15;99724.00;;;-4.00
4421;BMP180;11824;51.178;13.546;2022-11-20T08:51:46;99702.00;;;-4.00
4421;BMP180;11824;51.178;13.546;2022-11-20T08:54:18;99699.00;;;-3.90
4421;BMP180;11824;51.178;13.546;2022-11-20T08:56:49;99697.00;;;-3.80
4421;BMP180;11824;51.178;13.546;2022-11-20T08:59:18;99686.00;;;-3.70
4421;BMP180;11824;51.178;13.546;2022-11-20T09:02:07;99689.00;;;-3.60
4421;BMP180;11824;51.178;13.546;2022-11-20T09:04:36;99690.00;;;-3.50
4421;BMP180;11824;51.178;13.546;2022-11-20T09:07:06;99681.00;;;-3.50
4421;BMP180;11824;51.178;13.546;2022-11-20T09:09:35;99681.00;;;-3.30
4421;BMP180;11824;51.178;13.546;2022-11-20T09:12:04;99679.00;;;-3.30
4421;BMP180;11824;51.178;13.546;2022-11-20T09:14:33;99681.00;;;-3.20
4421;BMP180;11824;51.178;13.546;2022-11-20T09:17:02;99679.00;;;-3.10
4421;BMP180;11824;51.178;13.546;2022-11-20T09:19:30;99686.00;;;-3.10
4421;BMP180;11824;51.178;13.546;2022-11-20T09:22:02;99693.00;;;-3.00
4421;BMP180;11824;51.178;13.546;2022-11-20T09:24:32;99687.00;;;-2.90
4421;BMP180;11824;51.178;13.546;2022-11-20T09:27:05;99698.00;;;-2.90
4421;BMP180;11824;51.178;13.546;2022-11-20T09:29:33;99691.00;;;-2.80
4421;BMP180;11824;51.178;13.546;2022-11-20T09:32:02;99691.00;;;-2.70
4421;BMP180;11824;51.178;13.546;2022-11-20T09:34:31;99694.00;;;-2.70
4421;BMP180;11824;51.178;13.546;2022-11-20T09:37:00;99698.00;;;-2.60
4421;BMP180;11824;51.178;13.546;2022-11-20T09:39:35;99697.00;;;-2.50
4421;BMP180;11824;51.178;13.546;2022-11-20T09:42:36;99685.00;;;-2.50
4421;BMP180;11824;51.178;13.546;2022-11-20T09:45:15;99674.00;;;-2.40
4421;BMP180;11824;51.178;13.546;2022-11-20T09:47:57;99679.00;;;-2.30
4421;BMP180;11824;51.178;13.546;2022-11-20T09:50:32;99677.00;;;-2.20
4421;BMP180;11824;51.178;13.546;2022-11-20T09:53:20;99678.00;;;-2.20
4421;BMP180;11824;51.178;13.546;2022-11-20T09:55:53;99682.00;;;-2.10
4421;BMP180;11824;51.178;13.546;2022-11-20T09:58:28;99673.00;;;-2.00
4421;BMP180;11824;51.178;13.546;2022-11-20T10:01:05;99669.00;;;-2.00
4421;BMP180;11824;51.178;13.546;2022-11-20T10:03:51;99667.00;;;-1.90
4421;BMP180;11824;51.178;13.546;2022-11-20T10:06:28;99660.00;;;-1.80
4421;BMP180;11824;51.178;13.546;2022-11-20T10:09:05;99659.00;;;-1.80
4421;BMP180;11824;51.178;13.546;2022-11-20T10:11:46;99655.00;;;-1.70
4421;BMP180;11824;51.178;13.546;2022-11-20T10:14:23;99665.00;;;-1.70
4421;BMP180;11824;51.178;13.546;2022-11-20T10:17:03;99647.00;;;-1.60
4421;BMP180;11824;51.178;13.546;2022-11-20T10:19:48;99649.00;;;-1.60
4421;BMP180;11824;51.178;13.546;2022-11-20T10:22:32;99641.00;;;-1.50
4421;BMP180;11824;51.178;13.546;2022-11-20T10:25:08;99632.00;;;-1.40
4421;BMP180;11824;51.178;13.546;2022-11-20T10:27:53;99628.00;;;-1.40
4421;BMP180;11824;51.178;13.546;2022-11-20T10:30:25;99631.00;;;-1.30
4421;BMP180;11824;51.178;13.546;2022-11-20T10:32:58;99635.00;;;-1.20
4421;BMP180;11824;51.178;13.546;2022-11-20T10:35:33;99633.00;;;-1.20
4421;BMP180;11824;51.178;13.546;2022-11-20T10:38:08;99638.00;;;-1.10
4421;BMP180;11824;51.178;13.546;2022-11-20T10:40:40;99634.00;;;-1.10
4421;BMP180;11824;51.178;13.546;2022-11-20T10:43:15;99646.00;;;-1.00
4421;BMP180;11824;51.178;13.546;2022-11-20T10:45:49;99641.00;;;-0.90
4421;BMP180;11824;51.178;13.546;2022-11-20T10:48:22;99640.00;;;-0.90
4421;BMP180;11824;51.178;13.546;2022-11-20T10:53:54;99643.00;;;-0.70
4421;BMP180;11824;51.178;13.546;2022-11-20T10:56:31;99636.00;;;-0.70
4421;BMP180;11824;51.178;13.546;2022-11-20T10:59:28;99637.00;;;-0.60
4421;BMP180;11824;51.178;13.546;2022-11-20T11:02:00;99637.00;;;-0.60
4421;BMP180;11824;51.178;13.546;2022-11-20T11:04:35;99636.00;;;-0.50
4421;BMP180;11824;51.178;13.546;2022-11-20T11:07:09;99635.00;;;-0.40
4421;BMP180;11824;51.178;13.546;2022-11-20T11:09:42;99634.00;;;-0.30
4421;BMP180;11824;51.178;13.546;2022-11-20T11:12:12;99625.00;;;-0.20
4421;BMP180;11824;51.178;13.546;2022-11-20T11:14:48;99629.00;;;-0.10
4421;BMP180;11824;51.178;13.546;2022-11-20T11:17:24;99621.00;;;-0.10
4421;BMP180;11824;51.178;13.546;2022-11-20T11:20:02;99619.00;;;-0.10
4421;BMP180;11824;51.178;13.546;2022-11-20T11:22:34;99609.00;;;0.00
4421;BMP180;11824;51.178;13.546;2022-11-20T11:25:24;99614.00;;;0.00
4421;BMP180;11824;51.178;13.546;2022-11-20T11:27:55;99602.00;;;0.10
4421;BMP180;11824;51.178;13.546;2022-11-20T11:30:28;99601.00;;;0.20
4421;BMP180;11824;51.178;13.546;2022-11-20T11:33:06;99597.00;;;0.20
4421;BMP180;11824;51.178;13.546;2022-11-20T11:35:43;99593.00;;;0.30
4421;BMP180;11824;51.178;13.546;2022-11-20T11:38:30;99582.00;;;0.30
4421;BMP180;11824;51.178;13.546;2022-11-20T11:40:59;99577.00;;;0.30
4421;BMP180;11824;51.178;13.546;2022-11-20T11:43:31;99587.00;;;0.30
4421;BMP180;11824;51.178;13.546;2022-11-20T11:46:33;99580.00;;;0.40
4421;BMP180;11824;51.178;13.546;2022-11-20T11:49:15;99583.00;;;0.40
4421;BMP180;11824;51.178;13.546;2022-11-20T11:51:59;99573.00;;;0.40
4421;BMP180;11824;51.178;13.546;2022-11-20T11:54:33;99585.00;;;0.40
4421;BMP180;11824;51.178;13.546;2022-11-20T11:57:10;99578.00;;;0.40
4421;BMP180;11824;51.178;13.546;2022-11-20T11:59:54;99576.00;;;0.40
4421;BMP180;11824;51.178;13.546;2022-11-20T12:02:35;99580.00;;;0.50
4421;BMP180;11824;51.178;13.546;2022-11-20T12:05:16;99564.00;;;0.50
4421;BMP180;11824;51.178;13.546;2022-11-20T12:07:47;99572.00;;;0.50
4421;BMP180;11824;51.178;13.546;2022-11-20T12:10:22;99575.00;;;0.50
4421;BMP180;11824;51.178;13.546;2022-11-20T12:12:54;99571.00;;;0.50
4421;BMP180;11824;51.178;13.546;2022-11-20T12:15:30;99571.00;;;0.50
4421;BMP180;11824;51.178;13.546;2022-11-20T12:18:01;99570.00;;;0.50
4421;BMP180;11824;51.178;13.546;2022-11-20T12:20:35;99566.00;;;0.60
4421;BMP180;11824;51.178;13.546;2022-11-20T12:23:13;99577.00;;;0.60
4421;BMP180;11824;51.178;13.546;2022-11-20T12:25:47;99569.00;;;0.60
4421;BMP180;11824;51.178;13.546;2022-11-20T12:28:38;99565.00;;;0.60
4421;BMP180;11824;51.178;13.546;2022-11-20T12:31:22;99573.00;;;0.60
4421;BMP180;11824;51.178;13.546;2022-11-20T12:34:03;99574.00;;;0.60
4421;BMP180;11824;51.178;13.546;2022-11-20T12:36:39;99575.00;;;0.70
4421;BMP180;11824;51.178;13.546;2022-11-20T12:39:36;99570.00;;;0.70
4421;BMP180;11824;51.178;13.546;2022-11-20T12:42:23;99572.00;;;0.60
4421;BMP180;11824;51.178;13.546;2022-11-20T12:45:24;99574.00;;;0.60
4421;BMP180;11824;51.178;13.546;2022-11-20T12:48:19;99568.00;;;0.70
4421;BMP180;11824;51.178;13.546;2022-11-20T12:54:04;99562.00;;;0.80
4421;BMP180;11824;51.178;13.546;2022-11-20T12:56:42;99555.00;;;0.90
4421;BMP180;11824;51.178;13.546;2022-11-20T12:59:40;99563.00;;;1.00
4421;BMP180;11824;51.178;13.546;2022-11-20T13:02:25;99553.00;;;1.10
4421;BMP180;11824;51.178;13.546;2022-11-20T13:05:06;99549.00;;;1.20
4421;BMP180;11824;51.178;13.546;2022-11-20T13:07:39;99553.00;;;1.20
4421;BMP180;11824;51.178;13.546;2022-11-20T13:10:16;99564.00;;;1.20
4421;BMP180;11824;51.178;13.546;2022-11-20T13:12:49;99551.00;;;1.30
4421;BMP180;11824;51.178;13.546;2022-11-20T13:15:26;99555.00;;;1.30
4421;BMP180;11824;51.178;13.546;2022-11-20T13:18:00;99549.00;;;1.30
4421;BMP180;11824;51.178;13.546;2022-11-20T13:20:30;99552.00;;;1.40
4421;BMP180;11824;51.178;13.546;2022-11-20T13:23:22;99549.00;;;1.40
4421;BMP180;11824;51.178;13.546;2022-11-20T13:26:19;99552.00;;;1.50
4421;BMP180;11824;51.178;13.546;2022-11-20T13:29:01;99555.00;;;1.50
4421;BMP180;11824;51.178;13.546;2022-11-20T13:31:35;99536.00;;;1.50
4421;BMP180;11824;51.178;13.546;2022-11-20T13:34:07;99537.00;;;1.50
4421;BMP180;11824;51.178;13.546;2022-11-20T13:36:51;99548.00;;;1.50
4421;BMP180;11824;51.178;13.546;2022-11-20T13:39:28;99560.00;;;1.50
4421;BMP180;11824;51.178;13.546;2022-11-20T13:41:59;99553.00;;;1.40
4421;BMP180;11824;51.178;13.546;2022-11-20T13:44:33;99538.00;;;1.40
4421;BMP180;11824;51.178;13.546;2022-11-20T13:47:04;99543.00;;;1.30
4421;BMP180;11824;51.178;13.546;2022-11-20T13:49:58;99554.00;;;1.30
4421;BMP180;11824;51.178;13.546;2022-11-20T13:52:42;99554.00;;;1.40
4421;BMP180;11824;51.178;13.546;2022-11-20T13:55:28;99550.00;;;1.30
4421;BMP180;11824;51.178;13.546;2022-11-20T13:58:26;99552.00;;;1.20
4421;BMP180;11824;51.178;13.546;2022-11-20T14:01:10;99549.00;;;1.10
4421;BMP180;11824;51.178;13.546;2022-11-20T14:03:39;99550.00;;;1.00
4421;BMP180;11824;51.178;13.546;2022-11-20T14:06:30;99541.00;;;0.90
4421;BMP180;11824;51.178;13.546;2022-11-20T14:09:00;99540.00;;;0.80
4421;BMP180;11824;51.178;13.546;2022-11-20T14:11:31;99541.00;;;0.80
4421;BMP180;11824;51.178;13.546;2022-11-20T14:14:13;99536.00;;;0.70
4421;BMP180;11824;51.178;13.546;2022-11-20T14:16:42;99533.00;;;0.60
4421;BMP180;11824;51.178;13.546;2022-11-20T14:19:26;99523.00;;;0.50
4421;BMP180;11824;51.178;13.546;2022-11-20T14:22:10;99521.00;;;0.40
4421;BMP180;11824;51.178;13.546;2022-11-20T14:24:44;99532.00;;;0.30
4421;BMP180;11824;51.178;13.546;2022-11-20T14:27:17;99530.00;;;0.20
4421;BMP180;11824;51.178;13.546;2022-11-20T14:29:48;99537.00;;;0.10
4421;BMP180;11824;51.178;13.546;2022-11-20T14:32:19;99542.00;;;0.10
4421;BMP180;11824;51.178;13.546;2022-11-20T14:34:50;99540.00;;;0.00
4421;BMP180;11824;51.178;13.546;2022-11-20T14:37:42;99546.00;;;-0.10
4421;BMP180;11824;51.178;13.546;2022-11-20T14:40:36;99537.00;;;-0.10
4421;BMP180;11824;51.178;13.546;2022-11-20T14:43:18;99527.00;;;-0.20
4421;BMP180;11824;51.178;13.546;2022-11-20T14:45:55;99516.00;;;-0.30
4421;BMP180;11824;51.178;13.546;2022-11-20T14:48:30;99525.00;;;-0.30
4421;BMP180;11824;51.178;13.546;2022-11-20T14:50:59;99507.00;;;-0.40